createdAt,value
2023-05-08T00:00:47.234Z,222.42
2023-05-08T00:01:47.285Z,223.48
2023-05-08T00:02:47.350Z,223.92
2023-05-08T00:03:47.544Z,223.71
2023-05-08T00:04:47.403Z,222.79
2023-05-08T00:05:47.423Z,225.35
2023-05-08T00:06:47.465Z,226.62
2023-05-08T00:07:47.492Z,225.53
2023-05-08T00:08:47.538Z,225.15
2023-05-08T00:09:47.582Z,227.07
2023-05-08T00:10:47.620Z,227.17
2023-05-08T00:11:47.670Z,224.38
2023-05-08T00:12:47.718Z,224.78
2023-05-08T00:13:47.750Z,222.85
2023-05-08T00:14:47.794Z,224.20
2023-05-08T00:15:47.822Z,225.81
2023-05-08T00:16:47.907Z,224.73
2023-05-08T00:17:47.932Z,221.10
2023-05-08T00:18:47.950Z,223.18
2023-05-08T00:19:48.013Z,220.94
2023-05-08T00:20:48.049Z,221.77
2023-05-08T00:21:48.086Z,220.98
2023-05-08T00:22:48.120Z,221.22
2023-05-08T00:23:48.183Z,221.26
2023-05-08T00:24:48.228Z,222.08
2023-05-08T00:25:48.254Z,223.83
2023-05-08T00:26:48.303Z,223.80
2023-05-08T00:27:48.334Z,224.42
2023-05-08T00:28:48.378Z,221.92
2023-05-08T00:29:48.388Z,222.53
2023-05-08T00:30:48.480Z,223.04
2023-05-08T00:31:48.520Z,222.94
2023-05-08T00:32:48.624Z,222.62
2023-05-08T00:33:48.549Z,221.79
2023-05-08T00:34:48.596Z,223.21
2023-05-08T00:35:48.668Z,222.21
2023-05-08T00:36:48.664Z,222.86
2023-05-08T00:37:48.710Z,225.73
2023-05-08T00:38:48.728Z,225.48
2023-05-08T00:39:48.754Z,224.68
2023-05-08T00:40:48.769Z,224.84
2023-05-08T00:41:48.846Z,225.73
2023-05-08T00:42:48.890Z,226.60
2023-05-08T00:43:48.883Z,228.53
2023-05-08T00:44:48.957Z,230.39
2023-05-08T00:45:48.969Z,231.44
2023-05-08T00:46:49.068Z,233.35
2023-05-08T00:47:49.052Z,233.37
2023-05-08T00:48:49.129Z,232.11
2023-05-08T00:49:49.124Z,232.23
2023-05-08T00:50:49.172Z,230.50
2023-05-08T00:51:49.156Z,232.00
2023-05-08T00:52:49.249Z,232.63
2023-05-08T00:53:49.249Z,231.42
2023-05-08T00:54:49.287Z,231.30
2023-05-08T00:55:49.328Z,230.86
2023-05-08T00:56:49.390Z,232.08
2023-05-08T00:57:49.399Z,229.21
2023-05-08T00:58:49.447Z,232.27
2023-05-08T00:59:49.453Z,233.66
2023-05-08T01:00:49.494Z,233.90
2023-05-08T01:01:49.542Z,232.89
2023-05-08T01:02:49.665Z,233.26
2023-05-08T01:03:49.693Z,233.26
2023-05-08T01:04:49.640Z,232.14
2023-05-08T01:05:49.668Z,232.72
2023-05-08T01:06:49.721Z,235.05
2023-05-08T01:07:49.717Z,237.28
2023-05-08T01:08:49.777Z,237.09
2023-05-08T01:09:49.790Z,239.67
2023-05-08T01:10:49.843Z,238.35
2023-05-08T01:11:49.893Z,241.42
2023-05-08T01:12:49.951Z,237.13
2023-05-08T01:13:49.955Z,237.46
2023-05-08T01:14:50.006Z,236.29
2023-05-08T01:15:50.004Z,235.52
2023-05-08T01:16:50.029Z,236.16
2023-05-08T01:17:50.110Z,238.58
2023-05-08T01:18:50.150Z,237.03
2023-05-08T01:19:50.159Z,237.39
2023-05-08T01:20:50.184Z,240.60
2023-05-08T01:21:50.198Z,238.39
2023-05-08T01:22:50.293Z,238.71
2023-05-08T01:23:50.311Z,239.49
2023-05-08T01:24:50.310Z,241.16
2023-05-08T01:25:50.358Z,240.70
2023-05-08T01:26:50.395Z,240.82
2023-05-08T01:27:50.443Z,238.01
2023-05-08T01:28:50.480Z,242.22
2023-05-08T01:29:50.481Z,243.02
2023-05-08T01:30:50.495Z,241.86
2023-05-08T01:31:50.568Z,241.58
2023-05-08T01:32:50.705Z,242.28
2023-05-08T01:33:50.676Z,243.59
2023-05-08T01:34:50.684Z,245.51
2023-05-08T01:35:50.716Z,246.22
2023-05-08T01:36:50.719Z,246.33
2023-05-08T01:37:50.770Z,247.96
2023-05-08T01:38:50.832Z,245.29
2023-05-08T01:39:50.870Z,244.76
2023-05-08T01:40:50.898Z,247.15
2023-05-08T01:41:50.922Z,249.91
2023-05-08T01:42:50.962Z,248.57
2023-05-08T01:43:51.008Z,247.42
2023-05-08T01:44:51.032Z,245.17
2023-05-08T01:45:51.099Z,245.87
2023-05-08T01:46:51.186Z,247.74
2023-05-08T01:47:51.152Z,249.24
2023-05-08T01:48:51.170Z,249.79
2023-05-08T01:49:51.222Z,249.10
2023-05-08T01:50:51.254Z,247.95
2023-05-08T01:51:51.268Z,247.22
2023-05-08T01:52:51.330Z,249.56
2023-05-08T01:53:51.348Z,249.73
2023-05-08T01:54:51.358Z,248.88
2023-05-08T01:55:51.410Z,249.10
2023-05-08T01:56:51.439Z,249.46
2023-05-08T01:57:51.488Z,247.43
2023-05-08T01:58:51.486Z,250.00
2023-05-08T01:59:51.530Z,247.13
2023-05-08T02:00:51.607Z,246.01
2023-05-08T02:01:51.635Z,246.97
2023-05-08T02:02:51.676Z,246.28
2023-05-08T02:03:51.700Z,246.91
2023-05-08T02:04:51.724Z,246.35
2023-05-08T02:05:51.741Z,246.17
2023-05-08T02:06:51.718Z,248.76
2023-05-08T02:07:51.793Z,247.54
2023-05-08T02:08:51.820Z,248.75
2023-05-08T02:09:51.831Z,246.87
2023-05-08T02:10:51.871Z,246.42
2023-05-08T02:11:51.937Z,248.79
2023-05-08T02:12:51.990Z,245.33
2023-05-08T02:13:51.980Z,246.59
2023-05-08T02:14:52.028Z,248.30
2023-05-08T02:15:52.049Z,247.80
2023-05-08T02:16:52.109Z,248.38
2023-05-08T02:17:52.221Z,247.43
2023-05-08T02:18:52.140Z,248.66
2023-05-08T02:19:52.150Z,249.14
2023-05-08T02:20:52.178Z,248.17
2023-05-08T02:21:52.227Z,249.25
2023-05-08T02:22:52.332Z,248.86
2023-05-08T02:23:52.273Z,247.04
2023-05-08T02:24:52.330Z,246.35
2023-05-08T02:25:52.351Z,250.00
2023-05-08T02:26:52.373Z,249.37
2023-05-08T02:27:52.415Z,249.60
2023-05-08T02:28:52.447Z,248.58
2023-05-08T02:29:52.478Z,248.29
2023-05-08T02:30:52.509Z,246.78
2023-05-08T02:31:52.596Z,247.28
2023-05-08T02:32:52.563Z,245.67
2023-05-08T02:33:52.588Z,247.45
2023-05-08T02:35:02.501Z,248.12
2023-05-08T02:35:53.618Z,248.22
2023-05-08T02:36:52.591Z,248.33
2023-05-08T02:37:52.635Z,247.98
2023-05-08T02:38:52.579Z,249.67
2023-05-08T02:39:52.621Z,248.62
2023-05-08T02:40:52.559Z,249.10
2023-05-08T02:41:52.594Z,250.00
2023-05-08T02:42:52.568Z,248.59
2023-05-08T02:43:52.558Z,247.87
2023-05-08T02:44:52.564Z,248.40
2023-05-08T02:45:52.675Z,249.15
2023-05-08T02:46:52.538Z,247.82
2023-05-08T02:47:52.591Z,246.90
2023-05-08T02:48:52.517Z,245.45
2023-05-08T02:49:52.523Z,247.35
2023-05-08T02:50:52.556Z,248.39
2023-05-08T02:51:52.574Z,248.68
2023-05-08T02:52:52.622Z,249.21
2023-05-08T02:53:52.623Z,250.00
2023-05-08T02:54:52.666Z,248.79
2023-05-08T02:55:52.700Z,246.49
2023-05-08T02:56:52.743Z,248.99
2023-05-08T02:57:52.750Z,247.75
2023-05-08T02:58:52.795Z,248.45
2023-05-08T02:59:52.830Z,249.68
2023-05-08T03:00:52.853Z,248.30
2023-05-08T03:01:53.022Z,249.38
2023-05-08T03:02:52.993Z,248.64
2023-05-08T03:03:53.214Z,248.49
2023-05-08T03:04:52.965Z,249.68
2023-05-08T03:05:52.975Z,248.37
2023-05-08T03:06:53.026Z,249.66
2023-05-08T03:07:53.038Z,249.41
2023-05-08T03:08:53.085Z,248.25
2023-05-08T03:09:53.116Z,248.76
2023-05-08T03:10:53.128Z,247.58
2023-05-08T03:11:53.145Z,249.53
2023-05-08T03:12:53.223Z,249.37
2023-05-08T03:13:53.216Z,248.41
2023-05-08T03:14:53.259Z,249.08
2023-05-08T03:15:53.325Z,247.09
2023-05-08T03:16:53.294Z,247.84
2023-05-08T03:17:53.371Z,247.05
2023-05-08T03:18:53.423Z,249.62
2023-05-08T03:19:53.389Z,247.43
2023-05-08T03:20:53.434Z,248.62
2023-05-08T03:21:53.480Z,248.56
2023-05-08T03:22:53.513Z,249.00
2023-05-08T03:23:53.554Z,249.40
2023-05-08T03:24:53.596Z,249.39
2023-05-08T03:25:53.576Z,247.10
2023-05-08T03:26:53.618Z,248.26
2023-05-08T03:27:53.654Z,247.42
2023-05-08T03:28:53.690Z,245.86
2023-05-08T03:29:53.715Z,246.19
2023-05-08T03:30:53.760Z,246.35
2023-05-08T03:31:53.738Z,249.27
2023-05-08T03:32:53.797Z,248.40
2023-05-08T03:33:53.765Z,248.07
2023-05-08T03:34:53.772Z,248.39
2023-05-08T03:35:53.765Z,248.66
2023-05-08T03:36:53.751Z,247.51
2023-05-08T03:37:53.815Z,249.50
2023-05-08T03:38:53.840Z,249.43
2023-05-08T03:39:53.840Z,247.81
2023-05-08T03:40:53.864Z,249.28
2023-05-08T03:41:53.914Z,248.22
2023-05-08T03:42:53.948Z,248.69
2023-05-08T03:43:53.974Z,249.67
2023-05-08T03:44:54.006Z,249.42
2023-05-08T03:45:54.006Z,250.00
2023-05-08T03:46:54.091Z,247.61
2023-05-08T03:47:54.136Z,247.81
2023-05-08T03:48:54.105Z,247.93
2023-05-08T03:49:54.109Z,248.88
2023-05-08T03:50:54.164Z,249.35
2023-05-08T03:51:54.206Z,247.47
2023-05-08T03:52:54.239Z,248.66
2023-05-08T03:53:54.276Z,247.45
2023-05-08T03:54:54.285Z,247.44
2023-05-08T03:55:54.296Z,249.29
2023-05-08T03:56:54.345Z,248.46
2023-05-08T03:57:54.357Z,249.81
2023-05-08T03:58:54.376Z,247.80
2023-05-08T03:59:54.430Z,248.54
2023-05-08T04:00:54.468Z,249.71
2023-05-08T04:01:54.475Z,248.70
2023-05-08T04:02:54.584Z,249.19
2023-05-08T04:03:54.733Z,249.23
2023-05-08T04:04:54.556Z,248.06
2023-05-08T04:05:54.585Z,249.17
2023-05-08T04:06:54.608Z,248.77
2023-05-08T04:07:54.618Z,247.13
2023-05-08T04:08:54.668Z,245.82
2023-05-08T04:09:54.674Z,247.28
2023-05-08T04:10:54.688Z,246.75
2023-05-08T04:11:54.741Z,249.43
2023-05-08T04:12:54.769Z,245.33
2023-05-08T04:13:54.782Z,246.93
2023-05-08T04:14:56.521Z,247.28
2023-05-08T04:15:54.853Z,245.77
2023-05-08T04:16:54.891Z,247.54
2023-05-08T04:17:54.928Z,247.42
2023-05-08T04:18:54.911Z,246.44
2023-05-08T04:19:54.940Z,247.57
2023-05-08T04:20:54.976Z,249.38
2023-05-08T04:21:55.003Z,246.69
2023-05-08T04:22:55.015Z,246.42
2023-05-08T04:23:55.079Z,246.55
2023-05-08T04:24:55.105Z,246.76
2023-05-08T04:25:55.132Z,247.35
2023-05-08T04:26:55.132Z,248.03
2023-05-08T04:27:55.202Z,248.68
2023-05-08T04:28:55.208Z,249.08
2023-05-08T04:29:55.249Z,248.95
2023-05-08T04:30:55.250Z,248.59
2023-05-08T04:31:55.280Z,248.14
2023-05-08T04:32:55.323Z,248.63
2023-05-08T04:33:55.312Z,248.56
2023-05-08T04:34:55.406Z,246.76
2023-05-08T04:35:55.400Z,249.26
2023-05-08T04:36:55.427Z,246.37
2023-05-08T04:37:55.467Z,247.24
2023-05-08T04:38:55.497Z,246.43
2023-05-08T04:39:55.523Z,245.65
2023-05-08T04:40:55.517Z,245.64
2023-05-08T04:41:55.558Z,245.18
2023-05-08T04:42:55.604Z,246.24
2023-05-08T04:43:55.626Z,247.12
2023-05-08T04:44:55.650Z,248.21
2023-05-08T04:45:55.727Z,250.00
2023-05-08T04:46:55.674Z,249.95
2023-05-08T04:47:55.717Z,250.00
2023-05-08T04:48:55.746Z,249.75
2023-05-08T04:49:55.771Z,247.96
2023-05-08T04:50:55.801Z,249.61
2023-05-08T04:51:55.850Z,248.88
2023-05-08T04:52:55.871Z,249.69
2023-05-08T04:53:55.880Z,249.47
2023-05-08T04:54:55.923Z,247.84
2023-05-08T04:55:55.930Z,249.72
2023-05-08T04:56:55.982Z,248.48
2023-05-08T04:57:55.980Z,247.96
2023-05-08T04:58:56.040Z,247.98
2023-05-08T04:59:56.070Z,248.64
2023-05-08T05:00:56.085Z,247.63
2023-05-08T05:02:03.202Z,248.97
2023-05-08T05:02:56.160Z,249.14
2023-05-08T05:03:56.100Z,249.64
2023-05-08T05:04:56.100Z,250.04
2023-05-08T05:05:56.093Z,251.11
2023-05-08T05:06:56.090Z,251.77
2023-05-08T05:07:56.102Z,249.27
2023-05-08T05:08:56.110Z,249.18
2023-05-08T05:09:56.096Z,247.98
2023-05-08T05:10:56.073Z,248.93
2023-05-08T05:11:57.968Z,249.09
2023-05-08T05:12:56.090Z,249.00
2023-05-08T05:13:56.032Z,247.85
2023-05-08T05:14:56.036Z,249.14
2023-05-08T05:15:56.077Z,248.67
2023-05-08T05:16:56.008Z,248.29
2023-05-08T05:17:56.037Z,248.20
2023-05-08T05:18:56.026Z,250.00
2023-05-08T05:19:56.029Z,249.22
2023-05-08T05:20:56.069Z,248.92
2023-05-08T05:21:56.077Z,249.18
2023-05-08T05:22:56.135Z,249.92
2023-05-08T05:23:56.127Z,248.80
2023-05-08T05:24:56.152Z,249.84
2023-05-08T05:25:56.214Z,248.26
2023-05-08T05:26:56.219Z,250.00
2023-05-08T05:27:56.282Z,250.00
2023-05-08T05:28:56.311Z,246.44
2023-05-08T05:29:56.328Z,248.59
2023-05-08T05:30:56.335Z,249.66
2023-05-08T05:31:56.500Z,247.95
2023-05-08T05:32:56.454Z,248.78
2023-05-08T05:33:56.505Z,249.71
2023-05-08T05:34:56.448Z,249.91
2023-05-08T05:35:56.502Z,250.00
2023-05-08T05:36:56.512Z,249.65
2023-05-08T05:37:56.576Z,250.64
2023-05-08T05:38:57.021Z,249.96
2023-05-08T05:39:57.688Z,250.14
2023-05-08T05:40:56.681Z,250.35
2023-05-08T05:41:56.639Z,251.17
2023-05-08T05:42:57.497Z,253.65
2023-05-08T05:43:56.567Z,260.37
2023-05-08T05:44:56.574Z,271.17
2023-05-08T05:46:04.070Z,264.13
2023-05-08T05:46:56.638Z,264.45
2023-05-08T05:47:56.617Z,265.83
2023-05-08T05:48:57.021Z,269.10
2023-05-08T05:49:56.613Z,274.84
2023-05-08T05:50:56.613Z,283.16
2023-05-08T05:51:56.529Z,276.05
2023-05-08T05:52:56.545Z,266.28
2023-05-08T05:53:56.524Z,257.97
2023-05-08T05:54:56.526Z,250.00
2023-05-08T05:55:56.574Z,249.90
2023-05-08T05:56:56.477Z,249.77
2023-05-08T05:57:56.488Z,249.71
2023-05-08T05:58:56.505Z,250.00
2023-05-08T05:59:56.537Z,249.49
2023-05-08T06:00:56.585Z,249.85
2023-05-08T06:01:56.606Z,249.74
2023-05-08T06:02:56.698Z,250.00
2023-05-08T06:03:56.582Z,250.00
2023-05-08T06:04:56.428Z,249.40
2023-05-08T06:05:56.684Z,249.69
2023-05-08T06:06:56.425Z,250.00
2023-05-08T06:07:56.433Z,249.61
2023-05-08T06:08:56.460Z,250.00
2023-05-08T06:09:56.428Z,250.00
2023-05-08T06:10:56.559Z,249.78
2023-05-08T06:11:56.551Z,242.73
2023-05-08T06:12:56.633Z,241.98
2023-05-08T06:13:57.043Z,240.71
2023-05-08T06:14:56.803Z,234.84
2023-05-08T06:15:56.858Z,232.20
2023-05-08T06:16:56.952Z,227.34
2023-05-08T06:17:57.081Z,222.03
2023-05-08T06:18:57.005Z,221.24
2023-05-08T06:19:57.038Z,225.52
2023-05-08T06:20:57.014Z,218.22
2023-05-08T06:21:57.114Z,214.98
2023-05-08T06:22:57.059Z,218.03
2023-05-08T06:23:57.098Z,216.04
2023-05-08T06:24:57.064Z,217.37
2023-05-08T06:25:57.056Z,215.46
2023-05-08T06:26:57.066Z,216.79
2023-05-08T06:27:57.086Z,213.06
2023-05-08T06:28:57.043Z,216.79
2023-05-08T06:29:57.540Z,214.15
2023-05-08T06:30:57.129Z,215.47
2023-05-08T06:31:57.101Z,216.80
2023-05-08T06:32:57.123Z,208.11
2023-05-08T06:33:57.044Z,209.68
2023-05-08T06:34:57.036Z,213.39
2023-05-08T06:35:57.058Z,209.11
2023-05-08T06:36:57.070Z,207.76
2023-05-08T06:37:57.141Z,197.69
2023-05-08T06:38:57.131Z,199.77
2023-05-08T06:40:11.056Z,204.83
2023-05-08T06:40:58.074Z,204.96
2023-05-08T06:41:57.103Z,205.36
2023-05-08T06:42:57.139Z,205.30
2023-05-08T06:43:57.091Z,206.50
2023-05-08T06:44:57.610Z,212.59
2023-05-08T06:45:57.182Z,216.79
2023-05-08T06:46:57.235Z,221.05
2023-05-08T06:47:57.300Z,224.01
2023-05-08T06:48:58.220Z,224.21
2023-05-08T06:49:58.201Z,224.25
2023-05-08T06:50:57.261Z,225.31
2023-05-08T06:51:58.417Z,224.38
2023-05-08T06:52:57.146Z,225.65
2023-05-08T06:53:57.187Z,228.10
2023-05-08T06:54:57.189Z,231.74
2023-05-08T06:55:57.249Z,236.53
2023-05-08T06:56:57.126Z,238.12
2023-05-08T06:57:57.149Z,240.73
2023-05-08T06:59:07.754Z,239.90
2023-05-08T06:59:59.220Z,239.97
2023-05-08T07:00:57.180Z,240.40
2023-05-08T07:01:57.456Z,240.61
2023-05-08T07:02:57.248Z,240.69
2023-05-08T07:03:57.171Z,242.61
2023-05-08T07:04:57.243Z,243.53
2023-05-08T07:05:57.114Z,242.34
2023-05-08T07:06:57.160Z,243.54
2023-05-08T07:07:57.060Z,243.09
2023-05-08T07:08:57.070Z,245.15
2023-05-08T07:09:57.574Z,245.70
2023-05-08T07:10:57.060Z,246.38
2023-05-08T07:11:57.031Z,247.40
2023-05-08T07:12:57.255Z,247.73
2023-05-08T07:13:57.271Z,248.29
2023-05-08T07:14:58.018Z,250.00
2023-05-08T07:15:57.253Z,249.71
2023-05-08T07:16:58.135Z,249.82
2023-05-08T07:17:57.163Z,249.91
2023-05-08T07:18:57.209Z,250.66
2023-05-08T07:19:57.092Z,250.96
2023-05-08T07:20:57.192Z,250.85
2023-05-08T07:21:57.150Z,250.00
2023-05-08T07:22:57.085Z,249.37
2023-05-08T07:23:57.087Z,249.27
2023-05-08T07:24:57.570Z,249.47
2023-05-08T07:25:57.078Z,249.44
2023-05-08T07:26:57.066Z,248.98
2023-05-08T07:27:58.644Z,247.82
2023-05-08T07:28:57.044Z,247.48
2023-05-08T07:29:57.089Z,249.28
2023-05-08T07:30:57.076Z,247.70
2023-05-08T07:31:57.129Z,247.81
2023-05-08T07:32:57.116Z,247.97
2023-05-08T07:33:57.062Z,237.98
2023-05-08T07:34:57.024Z,220.76
2023-05-08T07:35:57.032Z,210.02
2023-05-08T07:36:56.996Z,187.03
2023-05-08T07:37:57.002Z,173.02
2023-05-08T07:38:57.016Z,163.47
2023-05-08T07:39:57.020Z,159.63
2023-05-08T07:40:57.192Z,156.00
2023-05-08T07:41:56.971Z,160.34
2023-05-08T07:42:56.984Z,167.29
2023-05-08T07:43:56.973Z,175.09
2023-05-08T07:44:56.990Z,181.85
2023-05-08T07:45:56.927Z,186.93
2023-05-08T07:46:56.952Z,194.84
2023-05-08T07:47:57.073Z,197.69
2023-05-08T07:48:56.941Z,201.15
2023-05-08T07:49:57.073Z,205.72
2023-05-08T07:50:56.932Z,208.95
2023-05-08T07:51:56.895Z,209.57
2023-05-08T07:52:56.896Z,213.02
2023-05-08T07:53:56.895Z,214.09
2023-05-08T07:54:57.091Z,216.33
2023-05-08T07:55:56.913Z,219.67
2023-05-08T07:56:56.880Z,220.37
2023-05-08T07:57:56.827Z,222.93
2023-05-08T07:58:56.818Z,224.04
2023-05-08T07:59:57.034Z,224.30
2023-05-08T08:00:56.830Z,226.37
2023-05-08T08:01:56.862Z,225.80
2023-05-08T08:02:56.922Z,228.28
2023-05-08T08:03:57.013Z,230.40
2023-05-08T08:04:57.107Z,231.99
2023-05-08T08:05:56.843Z,233.91
2023-05-08T08:06:56.800Z,235.03
2023-05-08T08:07:56.897Z,235.42
2023-05-08T08:08:56.778Z,234.88
2023-05-08T08:09:56.787Z,229.78
2023-05-08T08:10:56.814Z,217.21
2023-05-08T08:11:56.757Z,216.49
2023-05-08T08:12:56.900Z,221.97
2023-05-08T08:13:56.738Z,222.43
2023-05-08T08:14:56.734Z,224.14
2023-05-08T08:15:56.792Z,227.09
2023-05-08T08:16:56.785Z,228.86
2023-05-08T08:17:56.799Z,230.41
2023-05-08T08:18:56.707Z,231.41
2023-05-08T08:19:56.818Z,232.21
2023-05-08T08:20:56.717Z,233.80
2023-05-08T08:21:56.733Z,233.82
2023-05-08T08:22:56.775Z,234.79
2023-05-08T08:23:56.705Z,234.80
2023-05-08T08:24:56.753Z,236.09
2023-05-08T08:25:56.685Z,236.61
2023-05-08T08:26:56.653Z,237.56
2023-05-08T08:27:56.677Z,237.12
2023-05-08T08:28:56.704Z,238.76
2023-05-08T08:30:15.178Z,238.17
2023-05-08T08:30:58.146Z,238.30
2023-05-08T08:31:56.649Z,238.34
2023-05-08T08:32:56.642Z,238.81
2023-05-08T08:33:56.649Z,240.20
2023-05-08T08:34:56.635Z,240.22
2023-05-08T08:35:57.185Z,198.44
2023-05-08T08:36:56.633Z,167.47
2023-05-08T08:37:56.952Z,154.51
2023-05-08T08:38:56.592Z,146.24
2023-05-08T08:39:57.506Z,150.06
2023-05-08T08:40:56.596Z,146.43
2023-05-08T08:41:56.599Z,143.17
2023-05-08T08:42:56.584Z,136.69
2023-05-08T08:43:56.589Z,131.07
2023-05-08T08:44:56.580Z,131.59
2023-05-08T08:45:56.636Z,127.99
2023-05-08T08:46:57.568Z,124.31
2023-05-08T08:47:56.574Z,121.53
2023-05-08T08:48:56.555Z,123.80
2023-05-08T08:49:56.534Z,124.63
2023-05-08T08:50:56.595Z,123.62
2023-05-08T08:51:56.620Z,124.83
2023-05-08T08:52:56.521Z,124.77
2023-05-08T08:53:56.539Z,127.76
2023-05-08T08:54:56.576Z,135.74
2023-05-08T08:55:56.580Z,141.47
2023-05-08T08:56:56.482Z,148.12
2023-05-08T08:57:56.601Z,153.89
2023-05-08T08:58:56.643Z,156.76
2023-05-08T08:59:56.603Z,161.21
2023-05-08T09:00:56.655Z,162.19
2023-05-08T09:01:56.716Z,163.05
2023-05-08T09:02:56.824Z,168.63
2023-05-08T09:03:56.828Z,167.14
2023-05-08T09:04:56.736Z,166.38
2023-05-08T09:05:57.135Z,164.15
2023-05-08T09:06:56.790Z,167.04
2023-05-08T09:07:56.835Z,166.64
2023-05-08T09:08:56.790Z,166.69
2023-05-08T09:09:56.797Z,174.18
2023-05-08T09:10:57.138Z,182.23
2023-05-08T09:11:56.807Z,185.74
2023-05-08T09:12:56.920Z,188.67
2023-05-08T09:13:56.811Z,191.03
2023-05-08T09:14:56.840Z,194.64
2023-05-08T09:15:57.130Z,200.02
2023-05-08T09:16:56.932Z,201.67
2023-05-08T09:17:57.053Z,206.11
2023-05-08T09:18:57.126Z,208.56
2023-05-08T09:19:57.120Z,209.03
2023-05-08T09:20:57.162Z,212.48
2023-05-08T09:21:57.255Z,213.82
2023-05-08T09:22:57.357Z,215.31
2023-05-08T09:23:57.450Z,216.86
2023-05-08T09:24:57.390Z,216.16
2023-05-08T09:25:57.644Z,217.27
2023-05-08T09:26:57.426Z,219.03
2023-05-08T09:27:57.495Z,220.78
2023-05-08T09:28:57.592Z,221.01
2023-05-08T09:29:57.644Z,223.14
2023-05-08T09:30:58.116Z,222.35
2023-05-08T09:31:57.811Z,224.74
2023-05-08T09:32:57.832Z,225.12
2023-05-08T09:33:57.992Z,225.52
2023-05-08T09:34:58.039Z,225.00
2023-05-08T09:35:58.903Z,225.05
2023-05-08T09:36:58.162Z,225.08
2023-05-08T09:37:57.882Z,225.51
2023-05-08T09:38:57.862Z,226.36
2023-05-08T09:39:57.994Z,229.00
2023-05-08T09:40:57.902Z,230.21
2023-05-08T09:41:58.150Z,226.77
2023-05-08T09:42:57.848Z,217.88
2023-05-08T09:43:58.097Z,200.56
2023-05-08T09:44:57.866Z,188.74
2023-05-08T09:45:57.944Z,182.85
2023-05-08T09:46:57.908Z,186.84
2023-05-08T09:47:58.012Z,189.24
2023-05-08T09:48:57.976Z,189.11
2023-05-08T09:49:57.984Z,191.26
2023-05-08T09:50:58.156Z,194.00
2023-05-08T09:51:58.192Z,194.49
2023-05-08T09:52:58.190Z,194.76
2023-05-08T09:53:58.220Z,195.37
2023-05-08T09:54:58.218Z,199.12
2023-05-08T09:55:58.348Z,200.16
2023-05-08T09:56:58.316Z,206.78
2023-05-08T09:57:58.503Z,212.00
2023-05-08T09:58:58.447Z,217.02
2023-05-08T09:59:58.479Z,217.41
2023-05-08T10:00:58.582Z,216.56
2023-05-08T10:01:58.631Z,216.16
2023-05-08T10:02:58.678Z,219.28
2023-05-08T10:03:58.816Z,220.03
2023-05-08T10:04:58.838Z,220.05
2023-05-08T10:05:58.867Z,223.31
2023-05-08T10:06:59.134Z,222.64
2023-05-08T10:07:58.953Z,219.47
2023-05-08T10:08:59.026Z,220.13
2023-05-08T10:09:59.064Z,211.85
2023-05-08T10:10:59.219Z,209.06
2023-05-08T10:11:59.729Z,207.15
2023-05-08T10:12:59.361Z,207.53
2023-05-08T10:14:00.212Z,211.28
2023-05-08T10:14:59.379Z,209.38
2023-05-08T10:15:59.441Z,211.52
2023-05-08T10:16:59.542Z,210.35
2023-05-08T10:17:59.559Z,210.02
2023-05-08T10:18:59.609Z,211.28
2023-05-08T10:19:59.633Z,217.18
2023-05-08T10:20:59.694Z,218.24
2023-05-08T10:22:00.160Z,223.18
2023-05-08T10:22:59.960Z,223.75
2023-05-08T10:23:59.831Z,223.76
2023-05-08T10:24:59.907Z,222.53
2023-05-08T10:25:59.928Z,222.16
2023-05-08T10:27:06.372Z,224.34
2023-05-08T10:28:01.022Z,224.52
2023-05-08T10:28:59.973Z,225.33
2023-05-08T10:29:59.944Z,225.72
2023-05-08T10:30:59.966Z,224.94
2023-05-08T10:32:00.163Z,223.58
2023-05-08T10:32:59.942Z,224.55
2023-05-08T10:33:59.931Z,224.39
2023-05-08T10:34:59.941Z,223.20
2023-05-08T10:35:59.887Z,223.02
2023-05-08T10:37:00.271Z,223.25
2023-05-08T10:38:00.549Z,221.18
2023-05-08T10:38:59.957Z,220.56
2023-05-08T10:39:59.983Z,221.68
2023-05-08T10:41:00.030Z,211.83
2023-05-08T10:42:00.089Z,211.08
2023-05-08T10:43:00.153Z,205.44
2023-05-08T10:44:02.556Z,203.89
2023-05-08T10:45:00.246Z,208.31
2023-05-08T10:46:00.269Z,211.82
2023-05-08T10:47:00.677Z,210.48
2023-05-08T10:48:00.200Z,202.55
2023-05-08T10:49:00.161Z,196.41
2023-05-08T10:50:00.269Z,186.91
2023-05-08T10:51:00.152Z,176.80
2023-05-08T10:52:00.171Z,169.16
2023-05-08T10:53:00.118Z,161.76
2023-05-08T10:54:00.109Z,153.37
2023-05-08T10:55:00.128Z,146.44
2023-05-08T10:56:00.137Z,144.55
2023-05-08T10:57:00.154Z,137.46
2023-05-08T10:58:00.103Z,135.77
2023-05-08T10:59:00.109Z,131.99
2023-05-08T11:00:00.147Z,130.31
2023-05-08T11:01:00.146Z,129.37
2023-05-08T11:02:00.244Z,128.43
2023-05-08T11:03:00.238Z,124.17
2023-05-08T11:04:00.282Z,123.29
2023-05-08T11:05:00.029Z,119.51
2023-05-08T11:06:00.059Z,116.30
2023-05-08T11:07:00.171Z,115.94
2023-05-08T11:08:00.117Z,108.25
2023-05-08T11:09:01.020Z,105.07
2023-05-08T11:10:00.013Z,103.43
2023-05-08T11:11:00.021Z,102.90
2023-05-08T11:12:00.251Z,102.05
2023-05-08T11:13:00.006Z,99.23
2023-05-08T11:13:59.986Z,94.71
2023-05-08T11:14:59.985Z,93.00
2023-05-08T11:16:00.005Z,92.41
2023-05-08T11:17:00.618Z,91.33
2023-05-08T11:17:59.957Z,91.56
2023-05-08T11:18:59.941Z,93.34
2023-05-08T11:19:59.946Z,97.80
2023-05-08T11:20:59.954Z,99.50
2023-05-08T11:21:59.937Z,96.01
2023-05-08T11:23:00.162Z,93.84
2023-05-08T11:23:59.898Z,92.81
2023-05-08T11:24:59.906Z,90.84
2023-05-08T11:25:59.880Z,89.76
2023-05-08T11:26:59.877Z,88.95
2023-05-08T11:28:00.185Z,91.06
2023-05-08T11:28:59.892Z,89.69
2023-05-08T11:29:59.906Z,101.56
2023-05-08T11:30:59.905Z,110.41
2023-05-08T11:31:59.939Z,107.54
2023-05-08T11:33:00.274Z,96.74
2023-05-08T11:33:59.862Z,91.47
2023-05-08T11:34:59.865Z,93.22
2023-05-08T11:35:59.871Z,96.38
2023-05-08T11:36:59.834Z,93.10
2023-05-08T11:37:59.812Z,95.07
2023-05-08T11:38:59.799Z,90.90
2023-05-08T11:39:59.821Z,83.37
2023-05-08T11:40:59.840Z,74.13
2023-05-08T11:41:59.835Z,67.31
2023-05-08T11:42:59.866Z,64.27
2023-05-08T11:43:59.790Z,64.39
2023-05-08T11:44:59.798Z,66.19
2023-05-08T11:45:59.794Z,67.54
2023-05-08T11:46:59.866Z,69.22
2023-05-08T11:47:59.890Z,70.82
2023-05-08T11:48:59.886Z,74.07
2023-05-08T11:49:59.949Z,78.76
2023-05-08T11:50:59.945Z,83.19
2023-05-08T11:52:00.105Z,79.30
2023-05-08T11:53:00.031Z,73.94
2023-05-08T11:54:00.095Z,70.10
2023-05-08T11:55:00.063Z,73.57
2023-05-08T11:56:00.128Z,75.62
2023-05-08T11:57:00.083Z,70.88
2023-05-08T11:58:00.132Z,69.21
2023-05-08T11:59:00.174Z,72.24
2023-05-08T12:00:00.184Z,77.35
2023-05-08T12:01:00.296Z,80.63
2023-05-08T12:02:08.508Z,84.45
2023-05-08T12:03:01.407Z,84.63
2023-05-08T12:04:00.371Z,85.56
2023-05-08T12:05:00.286Z,85.98
2023-05-08T12:06:00.287Z,86.01
2023-05-08T12:07:00.225Z,69.92
2023-05-08T12:08:00.203Z,63.79
2023-05-08T12:09:00.212Z,58.53
2023-05-08T12:10:00.218Z,67.43
2023-05-08T12:11:00.234Z,59.10
2023-05-08T12:12:00.212Z,54.64
2023-05-08T12:13:00.286Z,66.93
2023-05-08T12:14:00.188Z,75.47
2023-05-08T12:15:00.180Z,85.46
2023-05-08T12:16:00.189Z,96.23
2023-05-08T12:17:00.184Z,114.62
2023-05-08T12:18:00.200Z,127.39
2023-05-08T12:19:00.143Z,127.35
2023-05-08T12:20:00.184Z,131.68
2023-05-08T12:21:00.180Z,136.58
2023-05-08T12:22:00.172Z,138.49
2023-05-08T12:23:00.166Z,138.26
2023-05-08T12:24:00.167Z,137.98
2023-05-08T12:25:00.168Z,131.93
2023-05-08T12:26:00.165Z,128.07
2023-05-08T12:27:00.165Z,126.93
2023-05-08T12:28:00.216Z,125.25
2023-05-08T12:29:00.213Z,124.11
2023-05-08T12:30:00.212Z,124.51
2023-05-08T12:31:00.261Z,123.19